Ruggles, Ohio
Current Conditions -  °F | °C
As of 12:31 PM on Sunday 23 Nov 2014 (Local Time) from KMFD Reporting Station
Overcast Overcast  
Wind Chill: 53°   Ceiling: 4800
Heat Index: 53°   Visibility: 10mi
Dew Point: 39°   Wind: 13mph
Humidity: 59%   Direction: 160°SSE
Pressure: 29.9"   Gusts: NA
Location:  41.1035°N, 82.407°W
Report Text: KMFD 231731Z 16011KT 10SM FEW029 OVC048 12/04 A2990 RMK AO2 T01170039
Loading
Personal Weather Stations






























Interactive Weather Map New forecast layout! Learn more

10-Day Weather Forecast

Advertisements
Track Severe Weather on mobile